LCRA/AKT METAR and TAF weather

Enter ICAO airport designator
Station Type Date Time Source
LCRA METAR 2022/11/27 08:50 UTC NOAA

LCRA 270850Z 06013KT 9999 FEW030 OVC250 19/11 Q1017 NOSIG


Station Type Date Time Source
LCRA Decoded METAR 2022/11/27 08:50 UTC NOAA

Akrotiri, Cyprus (LCRA) 34-35N 032-59E 0M
Nov 27, 2022 - 03:50 AM EST / 2022.11.27 0850 UTC
Wind: from the ENE (060 degrees) at 15 MPH (13 KT):0
Visibility: greater than 7 mile(s):0
Sky conditions: overcast
Temperature: 66 F (19 C)
Dew Point: 51 F (11 C)
Relative Humidity: 59%
Pressure (altimeter): 30.03 in. Hg (1017 hPa)
ob: LCRA 270850Z 06013KT 9999 FEW030 OVC250 19/11 Q1017 NOSIG
cycle: 9

Station Type Date Time Source
LCRA TAF 2022/11/27 09:38 UTC NOAA

TAF LCRA 270734Z 2709/2803 06014KT 9999 FEW030
TEMPO 2713/2721 07018G28KT
BECMG 2721/2724 03015KT
TEMPO 2801/2803 04018G28KT

Example: see airport list